Strona główna
METAR-TAF:

METAR-TAF

Lotnisko :

Port lotniczy Phnom Penh

Phnom Penh, Kambodża

Szerokość geograficzna: 11-33N, Długość geograficzna: 104-51E, wysokość: 10 m

Aktualna obserwacja pogody

Raport powstał 44 minut temu, godzina 04:30 UTC
Wiatr 10 kt od północ, zmienny między północny zachód i północny wschód
Temperatura 24°C
Wilgotność 54%
Ciśnienie 1015 hPa
Widzialność 10 km lub więcej
Mało chmury na wysokości 1700 ft

METAR: VDPP 070430Z 01010KT 320V040 9999 FEW017 24/14 Q1015

czas: 12:14 (05:14 UTC)

Prognoza

Raport powstał 12 godziny i 14 minut temu, godzina 17:00 UTC
Prognoza ważna od 06 godzina 18 UTC do 07 godzina 12 UTC
Wiatr 9 kt od północ
Widzialność 10 km lub więcej
Rozproszone chmury na wysokości 1700 ft

TAF: VDPP 061700Z 0618/0712 01009KT 9999 SCT017

Obserwacja i prognoza pogody dla ponad 4000 lotnisk (raport METAR i TAF).

Dostępne stacje oznaczono żółtymi i czerwonymi punktami na mapie.

Najedź kursorem aby zobaczyć nazwę stacji.

Kliknij aby zobaczyć obserwacje i prognozy pogody.

Aby zmienić mapę: kliknij na zielony przycisk z czarnym krzyżykiem, aby powiększyć; na zielony przycisk z myślnikiem, aby pomniejszyć; na zielone strzałki, aby przejść do map sąsiednich.


METAR-TAF: